createdAt,value
2019-02-04T00:00:32.158Z,74.28
2019-02-04T00:03:01.410Z,74.50
2019-02-04T00:05:30.010Z,77.38
2019-02-04T00:07:58.610Z,75.44
2019-02-04T00:10:27.150Z,74.18
2019-02-04T00:12:55.864Z,72.67
2019-02-04T00:15:24.517Z,73.84
2019-02-04T00:17:53.105Z,75.25
2019-02-04T00:20:21.690Z,75.59
2019-02-04T00:22:50.345Z,75.57
2019-02-04T00:25:21.503Z,74.85
2019-02-04T00:27:49.119Z,74.98
2019-02-04T00:30:24.849Z,75.79
2019-02-04T00:32:53.378Z,75.61
2019-02-04T00:35:22.018Z,75.44
2019-02-04T00:37:50.610Z,75.31
2019-02-04T00:40:21.848Z,75.67
2019-02-04T00:42:50.803Z,77.52
2019-02-04T00:45:19.387Z,74.43
2019-02-04T00:47:48.031Z,74.86
2019-02-04T00:50:21.070Z,74.28
2019-02-04T00:52:49.678Z,74.92
2019-02-04T00:55:18.465Z,76.03
2019-02-04T00:57:47.013Z,76.48
2019-02-04T01:00:29.915Z,76.79
2019-02-04T01:02:58.650Z,77.01
2019-02-04T01:05:27.785Z,77.25
2019-02-04T01:07:56.944Z,76.91
2019-02-04T01:10:29.615Z,76.42
2019-02-04T01:12:59.356Z,76.11
2019-02-04T01:15:28.139Z,76.60
2019-02-04T01:17:57.158Z,78.41
2019-02-04T01:20:30.300Z,75.33
2019-02-04T01:22:59.676Z,74.35
2019-02-04T01:25:28.508Z,74.73
2019-02-04T01:27:57.033Z,75.54
2019-02-04T01:30:26.036Z,76.73
2019-02-04T01:32:54.876Z,76.41
2019-02-04T01:35:24.694Z,76.40
2019-02-04T01:37:53.329Z,76.27
2019-02-04T01:40:24.428Z,75.62
2019-02-04T01:42:53.603Z,76.22
2019-02-04T01:45:22.687Z,76.04
2019-02-04T01:47:51.917Z,76.11
2019-02-04T01:50:22.108Z,76.44
2019-02-04T01:52:50.814Z,77.24
2019-02-04T01:55:19.642Z,76.57
2019-02-04T01:57:50.756Z,74.17
2019-02-04T02:00:24.860Z,75.91
2019-02-04T02:02:53.861Z,76.82
2019-02-04T02:05:23.469Z,77.13
2019-02-04T02:07:52.104Z,77.38
2019-02-04T02:10:22.906Z,77.67
2019-02-04T02:12:51.900Z,77.25
2019-02-04T02:15:20.619Z,76.81
2019-02-04T02:17:49.593Z,76.64
2019-02-04T02:20:20.810Z,77.00
2019-02-04T02:22:49.731Z,77.57
2019-02-04T02:25:18.337Z,77.12
2019-02-04T02:27:46.963Z,77.28
2019-02-04T02:30:18.043Z,78.01
2019-02-04T02:32:46.651Z,76.88
2019-02-04T02:35:15.229Z,76.98
2019-02-04T02:37:43.735Z,76.36
2019-02-04T02:40:18.117Z,77.09
2019-02-04T02:42:46.694Z,77.63
2019-02-04T02:45:15.695Z,77.52
2019-02-04T02:47:44.243Z,77.47
2019-02-04T02:50:14.972Z,77.31
2019-02-04T02:52:43.508Z,77.16
2019-02-04T02:55:14.810Z,77.54
2019-02-04T02:57:43.384Z,77.71
2019-02-04T03:00:18.396Z,78.02
2019-02-04T03:02:47.165Z,77.34
2019-02-04T03:05:16.874Z,78.78
2019-02-04T03:07:45.486Z,76.57
2019-02-04T03:10:17.167Z,75.55
2019-02-04T03:12:46.059Z,75.06
2019-02-04T03:15:14.748Z,75.97
2019-02-04T03:17:51.569Z,77.08
2019-02-04T03:20:14.268Z,77.80
2019-02-04T03:22:42.898Z,77.98
2019-02-04T03:25:15.038Z,77.82
2019-02-04T03:27:44.233Z,77.52
2019-02-04T03:30:21.414Z,77.62
2019-02-04T03:32:50.044Z,77.87
2019-02-04T03:35:18.616Z,77.59
2019-02-04T03:37:47.365Z,77.28
2019-02-04T03:40:21.831Z,78.86
2019-02-04T03:42:50.515Z,78.54
2019-02-04T03:45:19.214Z,76.90
2019-02-04T03:47:48.162Z,76.12
2019-02-04T03:50:16.913Z,76.86
2019-02-04T03:52:45.560Z,76.92
2019-02-04T03:55:16.052Z,77.46
2019-02-04T03:57:44.732Z,77.06
2019-02-04T04:00:28.650Z,76.86
2019-02-04T04:02:57.261Z,77.16
2019-02-04T04:05:26.216Z,77.59
2019-02-04T04:07:54.819Z,77.23
2019-02-04T04:10:23.649Z,77.28
2019-02-04T04:12:52.337Z,76.72
2019-02-04T04:15:21.185Z,77.52
2019-02-04T04:17:49.804Z,79.29
2019-02-04T04:20:20.010Z,77.82
2019-02-04T04:22:48.506Z,76.16
2019-02-04T04:25:18.400Z,75.80
2019-02-04T04:27:47.628Z,76.72
2019-02-04T04:30:21.992Z,76.73
2019-02-04T04:32:50.599Z,76.64
2019-02-04T04:35:19.369Z,76.74
2019-02-04T04:37:48.135Z,77.17
2019-02-04T04:40:17.419Z,76.95
2019-02-04T04:42:46.047Z,77.06
2019-02-04T04:45:22.148Z,76.38
2019-02-04T04:47:51.214Z,76.43
2019-02-04T04:50:19.796Z,76.20
2019-02-04T04:52:48.824Z,79.87
2019-02-04T04:55:22.892Z,78.89
2019-02-04T04:57:51.545Z,76.44
2019-02-04T05:00:28.024Z,76.14
2019-02-04T05:02:57.232Z,76.05
2019-02-04T05:05:25.819Z,76.07
2019-02-04T05:07:54.442Z,76.24
2019-02-04T05:10:23.165Z,76.69
2019-02-04T05:12:51.774Z,76.22
2019-02-04T05:15:23.437Z,76.58
2019-02-04T05:17:52.789Z,76.30
2019-02-04T05:20:22.045Z,75.26
2019-02-04T05:22:50.602Z,75.60
2019-02-04T05:25:19.315Z,76.25
2019-02-04T05:27:47.948Z,76.34
2019-02-04T05:30:21.388Z,80.14
2019-02-04T05:32:49.988Z,76.23
2019-02-04T05:35:21.530Z,75.55
2019-02-04T05:37:50.122Z,75.47
2019-02-04T05:40:19.020Z,76.10
2019-02-04T05:42:48.219Z,76.38
2019-02-04T05:45:20.866Z,76.20
2019-02-04T05:47:49.664Z,75.23
2019-02-04T05:50:19.490Z,75.78
2019-02-04T05:52:49.384Z,75.63
2019-02-04T05:55:19.410Z,75.90
2019-02-04T05:57:48.148Z,75.45
2019-02-04T06:00:21.330Z,75.87
2019-02-04T06:02:49.972Z,76.10
2019-02-04T06:05:19.081Z,77.15
2019-02-04T06:07:47.623Z,78.16
2019-02-04T06:10:16.738Z,76.33
2019-02-04T06:12:45.253Z,75.08
2019-02-04T06:15:15.869Z,75.56
2019-02-04T06:17:44.458Z,75.95
2019-02-04T06:20:24.167Z,76.37
2019-02-04T06:22:53.113Z,76.07
2019-02-04T06:25:21.695Z,75.64
2019-02-04T06:27:50.314Z,75.38
2019-02-04T06:30:20.239Z,75.45
2019-02-04T06:32:48.839Z,75.39
2019-02-04T06:35:18.154Z,75.53
2019-02-04T06:37:47.341Z,75.24
2019-02-04T06:40:17.132Z,75.04
2019-02-04T06:42:47.461Z,76.21
2019-02-04T06:45:17.481Z,76.49
2019-02-04T06:47:46.156Z,74.94
2019-02-04T06:50:19.793Z,74.36
2019-02-04T06:52:48.400Z,74.25
2019-02-04T06:55:25.412Z,73.66
2019-02-04T06:57:53.925Z,74.55
2019-02-04T07:00:22.442Z,74.15
2019-02-04T07:02:51.072Z,73.98
2019-02-04T07:05:20.144Z,73.83
2019-02-04T07:07:48.751Z,74.05
2019-02-04T07:10:26.117Z,73.30
2019-02-04T07:12:54.764Z,73.68
2019-02-04T07:15:23.374Z,73.84
2019-02-04T07:17:51.964Z,73.17
2019-02-04T07:20:22.552Z,75.34
2019-02-04T07:22:51.314Z,73.06
2019-02-04T07:25:20.643Z,73.03
2019-02-04T07:27:49.221Z,73.15
2019-02-04T07:30:26.033Z,72.81
2019-02-04T07:32:55.002Z,72.70
2019-02-04T07:35:23.834Z,73.13
2019-02-04T07:37:52.618Z,73.38
2019-02-04T07:40:27.255Z,72.84
2019-02-04T07:42:56.055Z,72.98
2019-02-04T07:45:24.745Z,72.15
2019-02-04T07:47:53.353Z,72.33
2019-02-04T07:50:22.034Z,72.58
2019-02-04T07:52:51.168Z,72.53
2019-02-04T07:55:19.820Z,73.69
2019-02-04T07:57:48.396Z,73.71
2019-02-04T08:00:24.310Z,71.78
2019-02-04T08:02:53.186Z,71.12
2019-02-04T08:05:21.939Z,71.38
2019-02-04T08:07:50.518Z,71.24
2019-02-04T08:10:19.128Z,71.83
2019-02-04T08:12:47.769Z,72.02
2019-02-04T08:15:25.091Z,71.56
2019-02-04T08:17:54.234Z,71.52
2019-02-04T08:20:22.963Z,71.81
2019-02-04T08:22:51.658Z,70.72
2019-02-04T08:25:20.293Z,70.81
2019-02-04T08:27:48.908Z,70.91
2019-02-04T08:30:23.794Z,70.76
2019-02-04T08:32:52.402Z,73.24
2019-02-04T08:35:21.131Z,70.74
2019-02-04T08:37:49.853Z,70.74
2019-02-04T08:40:19.700Z,70.36
2019-02-04T08:42:48.354Z,69.57
2019-02-04T08:45:17.028Z,69.81
2019-02-04T08:47:45.643Z,69.77
2019-02-04T08:50:25.051Z,69.38
2019-02-04T08:52:53.888Z,69.34
2019-02-04T08:55:22.516Z,69.24
2019-02-04T08:57:51.484Z,68.60
2019-02-04T09:00:22.879Z,68.33
2019-02-04T09:02:51.673Z,67.45
2019-02-04T09:05:21.621Z,67.70
2019-02-04T09:07:50.473Z,68.60
2019-02-04T09:10:22.009Z,70.54
2019-02-04T09:12:51.321Z,68.64
2019-02-04T09:15:19.943Z,67.75
2019-02-04T09:17:48.506Z,67.01
2019-02-04T09:20:18.565Z,66.99
2019-02-04T09:22:47.716Z,68.02
2019-02-04T09:25:21.541Z,68.11
2019-02-04T09:27:50.750Z,67.84
2019-02-04T09:30:21.840Z,68.25
2019-02-04T09:32:50.959Z,67.92
2019-02-04T09:35:21.190Z,67.73
2019-02-04T09:37:49.781Z,67.42
2019-02-04T09:40:21.192Z,66.13
2019-02-04T09:42:50.121Z,66.76
2019-02-04T09:45:18.747Z,73.45
2019-02-04T09:47:47.293Z,70.67
2019-02-04T09:50:22.164Z,67.56
2019-02-04T09:52:50.758Z,67.02
2019-02-04T09:55:25.101Z,67.48
2019-02-04T09:57:53.739Z,66.94
2019-02-04T10:00:27.488Z,67.42
2019-02-04T10:02:56.074Z,67.01
2019-02-04T10:05:24.662Z,67.08
2019-02-04T10:07:53.363Z,66.59
2019-02-04T10:10:24.447Z,66.86
2019-02-04T10:12:52.985Z,66.34
2019-02-04T10:15:24.204Z,66.23
2019-02-04T10:17:52.849Z,65.54
2019-02-04T10:20:33.071Z,65.11
2019-02-04T10:22:52.033Z,70.79
2019-02-04T10:25:26.222Z,66.87
2019-02-04T10:27:54.833Z,64.85
2019-02-04T10:30:26.532Z,64.40
2019-02-04T10:32:55.115Z,62.97
2019-02-04T10:35:23.864Z,63.68
2019-02-04T10:37:52.823Z,63.07
2019-02-04T10:40:29.838Z,63.52
2019-02-04T10:42:58.429Z,63.80
2019-02-04T10:45:27.243Z,62.28
2019-02-04T10:47:57.085Z,63.21
2019-02-04T10:50:45.165Z,63.08
2019-02-04T10:53:04.919Z,62.18
2019-02-04T10:55:33.545Z,63.15
2019-02-04T10:58:02.349Z,64.74
2019-02-04T11:00:33.676Z,64.28
2019-02-04T11:03:02.722Z,63.83
2019-02-04T11:05:42.763Z,62.48
2019-02-04T11:08:13.511Z,62.70
2019-02-04T11:10:42.268Z,62.64
2019-02-04T11:13:16.095Z,62.43
2019-02-04T11:15:45.334Z,62.09
2019-02-04T11:18:15.497Z,61.83
2019-02-04T11:20:44.448Z,61.86
2019-02-04T11:23:13.073Z,60.76
2019-02-04T11:25:41.917Z,61.11
2019-02-04T11:28:11.069Z,61.69
2019-02-04T11:30:45.373Z,61.68
2019-02-04T11:33:14.059Z,61.58
2019-02-04T11:35:42.892Z,63.36
2019-02-04T11:38:11.507Z,60.97
2019-02-04T11:40:41.352Z,58.56
2019-02-04T11:43:10.875Z,59.46
2019-02-04T11:45:40.023Z,59.55
2019-02-04T11:48:10.879Z,60.09
2019-02-04T11:50:39.987Z,58.51
2019-02-04T11:53:08.608Z,59.88
2019-02-04T11:55:37.303Z,57.17
2019-02-04T11:58:07.792Z,58.37
2019-02-04T12:00:37.386Z,58.33
2019-02-04T12:03:08.503Z,57.93
2019-02-04T12:05:37.089Z,58.14
2019-02-04T12:08:06.202Z,58.27
2019-02-04T12:10:40.602Z,59.14
2019-02-04T12:13:09.227Z,60.00
2019-02-04T12:15:37.825Z,58.11
2019-02-04T12:18:06.765Z,56.01
2019-02-04T12:20:35.342Z,57.67
2019-02-04T12:23:04.115Z,56.09
2019-02-04T12:25:32.830Z,56.28
2019-02-04T12:28:01.347Z,55.51
2019-02-04T12:30:32.699Z,56.98
2019-02-04T12:33:02.498Z,57.12
2019-02-04T12:35:31.117Z,57.04
2019-02-04T12:37:59.754Z,55.89
2019-02-04T12:40:28.396Z,56.46
2019-02-04T12:42:57.088Z,56.01
2019-02-04T12:45:37.341Z,57.24
2019-02-04T12:48:06.455Z,55.89
2019-02-04T12:50:35.435Z,56.27
2019-02-04T12:53:04.252Z,55.88
2019-02-04T12:55:33.522Z,55.88
2019-02-04T12:58:02.264Z,54.58
2019-02-04T13:00:32.133Z,55.04
2019-02-04T13:03:00.787Z,55.26
2019-02-04T13:05:34.867Z,54.87
2019-02-04T13:08:04.125Z,55.41
2019-02-04T13:10:32.749Z,55.15
2019-02-04T13:13:01.436Z,55.81
2019-02-04T13:15:30.027Z,55.26
2019-02-04T13:17:58.623Z,54.68
2019-02-04T13:20:27.232Z,54.83
2019-02-04T13:22:55.815Z,56.62
2019-02-04T13:25:29.261Z,55.26
2019-02-04T13:27:57.863Z,53.27
2019-02-04T13:30:30.446Z,54.15
2019-02-04T13:32:59.069Z,54.22
2019-02-04T13:35:30.783Z,54.79
2019-02-04T13:37:58.172Z,53.36
2019-02-04T13:40:31.380Z,54.17
2019-02-04T13:43:00.166Z,53.01
2019-02-04T13:45:29.475Z,52.64
2019-02-04T13:47:58.129Z,53.27
2019-02-04T13:50:26.968Z,52.25
2019-02-04T13:52:55.586Z,53.78
2019-02-04T13:55:29.973Z,54.17
2019-02-04T13:57:58.866Z,54.52
2019-02-04T14:00:28.191Z,52.45
2019-02-04T14:02:59.692Z,53.06
2019-02-04T14:05:31.437Z,52.20
2019-02-04T14:07:59.923Z,52.55
2019-02-04T14:10:31.048Z,51.82
2019-02-04T14:12:59.656Z,51.88
2019-02-04T14:15:28.559Z,52.16
2019-02-04T14:17:57.729Z,51.45
2019-02-04T14:20:27.042Z,52.38
2019-02-04T14:22:55.779Z,51.46
2019-02-04T14:25:24.613Z,52.19
2019-02-04T14:27:54.971Z,52.86
2019-02-04T14:30:35.378Z,54.76
2019-02-04T14:33:04.659Z,53.62
2019-02-04T14:35:33.447Z,52.62
2019-02-04T14:38:02.500Z,51.88
2019-02-04T14:40:31.174Z,51.89
2019-02-04T14:43:06.046Z,52.22
2019-02-04T14:45:43.200Z,52.26
2019-02-04T14:48:19.642Z,53.11
2019-02-04T14:50:53.794Z,51.99
2019-02-04T14:53:25.674Z,52.63
2019-02-04T14:55:59.968Z,52.97
2019-02-04T14:58:31.568Z,52.71
2019-02-04T15:01:36.391Z,52.46
2019-02-04T15:04:10.827Z,52.38
2019-02-04T15:06:57.456Z,58.29
2019-02-04T15:09:31.851Z,55.02
2019-02-04T15:12:09.164Z,53.54
2019-02-04T15:14:43.380Z,53.51
2019-02-04T15:17:14.885Z,53.68
2019-02-04T15:19:58.331Z,53.77
2019-02-04T15:22:38.664Z,54.47
2019-02-04T15:25:22.308Z,53.95
2019-02-04T15:28:10.448Z,54.20
2019-02-04T15:30:42.065Z,54.68
2019-02-04T15:33:13.592Z,54.54
2019-02-04T15:36:11.989Z,54.23
2019-02-04T15:38:48.929Z,54.12
2019-02-04T15:41:32.762Z,55.57
2019-02-04T15:44:08.911Z,54.86
2019-02-04T15:46:46.052Z,53.01
2019-02-04T15:49:34.201Z,52.97
2019-02-04T15:52:02.795Z,53.29
2019-02-04T15:54:31.383Z,53.45
2019-02-04T15:57:00.012Z,53.97
2019-02-04T15:59:28.613Z,53.07
2019-02-04T16:01:57.587Z,53.59
2019-02-04T16:04:27.716Z,53.95
2019-02-04T16:06:56.325Z,54.36
2019-02-04T16:09:24.984Z,53.63
2019-02-04T16:11:54.036Z,53.56
2019-02-04T16:14:22.670Z,54.21
2019-02-04T16:16:51.647Z,57.24
2019-02-04T16:19:20.294Z,53.22
2019-02-04T16:24:27.086Z,52.74
2019-02-04T16:26:55.746Z,53.11
2019-02-04T16:29:24.338Z,53.21
2019-02-04T16:31:52.910Z,53.90
2019-02-04T16:34:24.035Z,54.45
2019-02-04T16:36:51.981Z,54.76
2019-02-04T16:39:20.585Z,54.76
2019-02-04T16:41:49.487Z,55.01
2019-02-04T16:44:18.056Z,55.38
2019-02-04T16:46:46.681Z,55.96
2019-02-04T16:49:15.294Z,56.51
2019-02-04T16:51:43.893Z,58.89
2019-02-04T16:54:12.353Z,57.18
2019-02-04T16:56:40.898Z,55.95
2019-02-04T16:59:09.529Z,56.33
2019-02-04T17:01:38.541Z,56.20
2019-02-04T17:04:07.185Z,56.49
2019-02-04T17:06:35.900Z,56.79
2019-02-04T17:09:07.464Z,57.00
2019-02-04T17:11:36.067Z,57.00
2019-02-04T17:14:04.711Z,56.94
2019-02-04T17:16:33.571Z,58.09
2019-02-04T17:19:02.184Z,57.61
2019-02-04T17:21:30.828Z,57.13
2019-02-04T17:23:59.422Z,58.22
2019-02-04T17:26:28.240Z,59.37
2019-02-04T17:28:56.848Z,58.04
2019-02-04T17:31:25.424Z,57.79
2019-02-04T17:33:54.046Z,57.71
2019-02-04T17:36:22.631Z,57.76
2019-02-04T17:38:51.247Z,57.10
2019-02-04T17:41:20.058Z,57.69
2019-02-04T17:43:48.649Z,56.61
2019-02-04T17:46:17.225Z,56.73
2019-02-04T17:48:45.882Z,56.37
2019-02-04T17:51:14.468Z,55.50
2019-02-04T17:53:43.042Z,55.29
2019-02-04T17:56:11.711Z,54.54
2019-02-04T17:58:40.311Z,54.86
2019-02-04T18:01:08.966Z,57.56
2019-02-04T18:03:37.864Z,55.03
2019-02-04T18:06:06.623Z,53.55
2019-02-04T18:08:35.301Z,54.79
2019-02-04T18:11:04.185Z,53.91
2019-02-04T18:13:32.804Z,54.36
2019-02-04T18:16:02.229Z,54.39
2019-02-04T18:18:31.094Z,54.07
2019-02-04T18:20:59.783Z,54.63
2019-02-04T18:23:28.421Z,54.58
2019-02-04T18:25:57.024Z,55.21
2019-02-04T18:28:25.668Z,53.58
2019-02-04T18:30:54.274Z,54.02
2019-02-04T18:33:22.871Z,53.79
2019-02-04T18:35:51.456Z,57.25
2019-02-04T18:38:20.002Z,56.70
2019-02-04T18:40:48.989Z,54.25
2019-02-04T18:43:17.535Z,53.89
2019-02-04T18:45:46.264Z,52.71
2019-02-04T18:48:14.828Z,53.94
2019-02-04T18:50:43.775Z,54.04
2019-02-04T18:53:12.393Z,53.20
2019-02-04T18:55:41.039Z,53.68
2019-02-04T18:58:09.635Z,53.90
2019-02-04T19:00:38.212Z,53.51
2019-02-04T19:03:16.802Z,54.15
2019-02-04T19:05:37.495Z,53.02
2019-02-04T19:08:06.578Z,52.95
2019-02-04T19:10:35.224Z,58.02
2019-02-04T19:13:03.735Z,55.67
2019-02-04T19:15:32.384Z,53.18
2019-02-04T19:18:06.799Z,52.95
2019-02-04T19:20:35.443Z,53.73
2019-02-04T19:23:04.137Z,54.52
2019-02-04T19:25:32.889Z,54.80
2019-02-04T19:28:01.470Z,55.85
2019-02-04T19:30:32.769Z,54.85
2019-02-04T19:33:01.374Z,55.33
2019-02-04T19:35:30.079Z,55.34
2019-02-04T19:37:58.668Z,56.21
2019-02-04T19:40:27.368Z,55.75
2019-02-04T19:42:55.794Z,56.18
2019-02-04T19:45:25.679Z,56.22
2019-02-04T19:47:54.715Z,55.80
2019-02-04T19:50:32.337Z,54.99
2019-02-04T19:53:00.926Z,55.46
2019-02-04T19:55:29.436Z,55.55
2019-02-04T19:57:58.036Z,56.54
2019-02-04T20:00:26.917Z,56.18
2019-02-04T20:02:55.505Z,56.46
2019-02-04T20:05:26.619Z,56.00
2019-02-04T20:07:55.464Z,56.07
2019-02-04T20:10:27.316Z,56.50
2019-02-04T20:12:55.956Z,55.97
2019-02-04T20:15:26.796Z,56.05
2019-02-04T20:17:55.396Z,56.21
2019-02-04T20:20:24.524Z,56.28
2019-02-04T20:22:53.320Z,58.18
2019-02-04T20:25:30.592Z,56.24
2019-02-04T20:27:59.379Z,56.31
2019-02-04T20:30:30.240Z,56.01
2019-02-04T20:32:58.819Z,57.00
2019-02-04T20:35:27.559Z,57.12
2019-02-04T20:37:56.171Z,57.86
2019-02-04T20:40:26.380Z,56.92
2019-02-04T20:42:54.946Z,56.52
2019-02-04T20:45:23.898Z,57.26
2019-02-04T20:47:52.889Z,57.33
2019-02-04T20:50:26.820Z,57.19
2019-02-04T20:52:55.395Z,56.92
2019-02-04T20:55:24.006Z,57.48
2019-02-04T20:57:52.610Z,58.73
2019-02-04T21:00:26.262Z,56.53
2019-02-04T21:02:54.838Z,56.21
2019-02-04T21:05:23.440Z,56.56
2019-02-04T21:07:52.081Z,57.17
2019-02-04T21:10:23.402Z,57.63
2019-02-04T21:12:51.978Z,57.42
2019-02-04T21:15:22.220Z,57.42
2019-02-04T21:17:50.803Z,57.86
2019-02-04T21:20:24.331Z,57.25
2019-02-04T21:22:52.993Z,58.26
2019-02-04T21:25:21.588Z,58.82
2019-02-04T21:27:50.678Z,59.40
2019-02-04T21:30:31.060Z,60.40
2019-02-04T21:32:59.665Z,60.72
2019-02-04T21:35:28.443Z,59.23
2019-02-04T21:37:57.089Z,59.29
2019-02-04T21:40:26.041Z,59.90
2019-02-04T21:42:54.678Z,60.43
2019-02-04T21:45:24.735Z,61.53
2019-02-04T21:47:53.297Z,62.17
2019-02-04T21:50:26.762Z,61.28
2019-02-04T21:52:55.445Z,61.94
2019-02-04T21:55:24.914Z,62.76
2019-02-04T21:57:54.032Z,63.87
2019-02-04T22:00:30.511Z,63.83
2019-02-04T22:02:59.125Z,63.24
2019-02-04T22:05:30.412Z,63.82
2019-02-04T22:07:59.128Z,64.50
2019-02-04T22:10:29.645Z,63.64
2019-02-04T22:12:58.910Z,62.92
2019-02-04T22:15:27.912Z,64.35
2019-02-04T22:17:56.480Z,64.49
2019-02-04T22:20:25.104Z,64.20
2019-02-04T22:22:54.009Z,63.98
2019-02-04T22:25:24.570Z,64.80
2019-02-04T22:27:53.265Z,65.21
2019-02-04T22:30:27.194Z,65.55
2019-02-04T22:32:55.978Z,64.93
2019-02-04T22:35:24.645Z,66.25
2019-02-04T22:37:53.264Z,66.34
2019-02-04T22:40:23.950Z,67.13
2019-02-04T22:42:52.658Z,70.93
2019-02-04T22:45:21.249Z,67.67
2019-02-04T22:47:49.855Z,67.32
2019-02-04T22:50:23.654Z,67.58
2019-02-04T22:52:52.443Z,68.03
2019-02-04T22:55:31.777Z,68.61
2019-02-04T22:57:51.762Z,68.61
2019-02-04T23:00:24.017Z,68.58
2019-02-04T23:02:52.739Z,69.08
2019-02-04T23:05:21.394Z,69.89
2019-02-04T23:07:50.309Z,69.68
2019-02-04T23:10:18.890Z,69.68
2019-02-04T23:12:47.491Z,70.13
2019-02-04T23:15:16.108Z,70.65
2019-02-04T23:17:44.638Z,73.88
2019-02-04T23:20:14.267Z,71.40
2019-02-04T23:22:44.157Z,71.62
2019-02-04T23:25:12.847Z,71.31
2019-02-04T23:27:41.419Z,70.83
2019-02-04T23:30:16.114Z,72.11
2019-02-04T23:32:44.697Z,73.00
2019-02-04T23:35:13.300Z,72.62
2019-02-04T23:37:42.109Z,72.75
2019-02-04T23:40:12.528Z,72.75
2019-02-04T23:42:41.085Z,72.70
2019-02-04T23:45:11.028Z,73.13
2019-02-04T23:47:39.666Z,73.84
2019-02-04T23:50:16.059Z,73.21
2019-02-04T23:52:44.664Z,73.55
2019-02-04T23:55:14.160Z,74.75
2019-02-04T23:57:42.788Z,73.54
